createdAt,value
2022-08-23T00:01:51.703Z,99783.84
2022-08-23T00:04:32.133Z,99788.16
2022-08-23T00:07:02.565Z,99784.66
2022-08-23T00:09:29.384Z,99780.75
2022-08-23T00:12:07.401Z,99778.22
2022-08-23T00:14:37.866Z,99777.16
2022-08-23T00:17:06.326Z,99776.56
2022-08-23T00:19:33.147Z,99776.56
2022-08-23T00:22:00.105Z,99776.53
2022-08-23T00:24:26.857Z,99778.81
2022-08-23T00:27:01.489Z,99779.44
2022-08-23T00:29:47.987Z,99778.41
2022-08-23T00:32:34.924Z,99775.47
2022-08-23T00:35:02.998Z,99780.06
2022-08-23T00:37:32.318Z,99769.47
2022-08-23T00:39:59.977Z,99765.75
2022-08-23T00:42:51.462Z,99774.03
2022-08-23T00:45:43.718Z,99777.56
2022-08-23T00:48:11.514Z,99779.25
2022-08-23T00:50:44.985Z,99786.69
2022-08-23T00:53:22.927Z,99786.22
2022-08-23T00:55:53.810Z,99784.81
2022-08-23T00:58:22.304Z,99785.03
2022-08-23T01:00:51.004Z,99788.53
2022-08-23T01:03:19.469Z,99786.88
2022-08-23T01:06:06.694Z,99790.56
2022-08-23T01:08:37.177Z,99788.72
2022-08-23T01:11:09.896Z,99788.50
2022-08-23T01:13:41.133Z,99789.94
2022-08-23T01:16:16.181Z,99794.41
2022-08-23T01:18:43.442Z,99797.41
2022-08-23T01:21:27.505Z,99794.19
2022-08-23T01:23:57.858Z,99792.81
2022-08-23T01:26:25.802Z,99793.44
2022-08-23T01:28:54.219Z,99798.59
2022-08-23T01:31:22.518Z,99808.75
2022-08-23T01:33:55.300Z,99804.97
2022-08-23T01:36:22.092Z,99809.22
2022-08-23T01:38:52.418Z,99803.53
2022-08-23T01:41:19.415Z,99800.59
2022-08-23T01:43:46.544Z,99793.53
2022-08-23T01:46:18.787Z,99793.31
2022-08-23T01:48:48.092Z,99793.13
2022-08-23T01:51:16.719Z,99794.56
2022-08-23T01:53:43.939Z,99799.53
2022-08-23T01:56:11.258Z,99791.88
2022-08-23T01:58:39.230Z,99788.53
2022-08-23T02:01:07.158Z,99793.03
2022-08-23T02:03:34.549Z,99795.16
2022-08-23T02:06:01.216Z,99798.88
2022-08-23T02:08:46.698Z,99796.78
2022-08-23T02:11:16.847Z,99798.44
2022-08-23T02:13:47.989Z,99786.94
2022-08-23T02:16:28.024Z,99791.03
2022-08-23T02:18:55.986Z,99794.44
2022-08-23T02:21:22.842Z,99795.28
2022-08-23T02:23:51.544Z,99796.72
2022-08-23T02:26:18.874Z,99789.88
2022-08-23T02:28:46.683Z,99794.63
2022-08-23T02:31:13.458Z,99799.78
2022-08-23T02:33:41.303Z,99807.22
2022-08-23T02:36:08.368Z,99801.47
2022-08-23T02:38:36.659Z,99800.44
2022-08-23T02:41:03.380Z,99804.41
2022-08-23T02:43:31.417Z,99815.78
2022-08-23T02:45:58.265Z,99811.22
2022-08-23T02:48:25.465Z,99817.59
2022-08-23T02:51:03.302Z,99824.69
2022-08-23T02:53:30.690Z,99824.03
2022-08-23T02:55:58.022Z,99817.59
2022-08-23T02:58:25.954Z,99822.25
2022-08-23T03:00:53.662Z,99822.44
2022-08-23T03:03:23.890Z,99823.31
2022-08-23T03:05:50.639Z,99835.31
2022-08-23T03:08:19.822Z,99829.59
2022-08-23T03:10:51.076Z,99832.38
2022-08-23T03:13:18.498Z,99825.09
2022-08-23T03:15:47.689Z,99835.63
2022-08-23T03:18:14.819Z,99833.84
2022-08-23T03:20:43.941Z,99836.16
2022-08-23T03:23:12.256Z,99824.78
2022-08-23T03:25:39.220Z,99832.63
2022-08-23T03:28:12.953Z,99837.03
2022-08-23T03:30:43.702Z,99844.84
2022-08-23T03:33:11.681Z,99846.56
2022-08-23T03:35:38.994Z,99842.84
2022-08-23T03:38:07.910Z,99841.72
2022-08-23T03:40:35.236Z,99850.56
2022-08-23T03:43:04.023Z,99849.06
2022-08-23T03:45:31.317Z,99851.78
2022-08-23T03:47:58.968Z,99847.81
2022-08-23T03:50:26.446Z,99850.53
2022-08-23T03:52:53.858Z,99853.34
2022-08-23T03:55:20.625Z,99856.88
2022-08-23T03:57:49.574Z,99855.19
2022-08-23T04:00:20.228Z,99856.22
2022-08-23T04:02:48.626Z,99863.09
2022-08-23T04:05:16.029Z,99857.31
2022-08-23T04:07:58.243Z,99857.97
2022-08-23T04:10:25.571Z,99860.50
2022-08-23T04:12:55.141Z,99860.31
2022-08-23T04:15:22.741Z,99859.25
2022-08-23T04:17:49.675Z,99861.34
2022-08-23T04:20:16.501Z,99864.94
2022-08-23T04:22:59.443Z,99869.28
2022-08-23T04:25:34.456Z,99871.13
2022-08-23T04:28:03.329Z,99864.75
2022-08-23T04:30:31.692Z,99866.91
2022-08-23T04:33:28.545Z,99873.19
2022-08-23T04:35:55.560Z,99873.00
2022-08-23T04:38:25.041Z,99873.38
2022-08-23T04:41:15.125Z,99877.41
2022-08-23T04:43:46.596Z,99879.06
2022-08-23T04:47:33.222Z,99888.50
2022-08-23T04:50:02.757Z,99886.06
2022-08-23T04:52:32.043Z,99887.66
2022-08-23T04:54:59.352Z,99893.56
2022-08-23T04:57:48.850Z,99885.78
2022-08-23T05:01:16.003Z,99893.50
2022-08-23T05:04:16.085Z,99897.34
2022-08-23T05:06:48.342Z,99896.13
2022-08-23T05:09:19.997Z,99898.97
2022-08-23T05:12:17.271Z,99912.53
2022-08-23T05:14:51.699Z,99913.28
2022-08-23T05:17:19.504Z,99905.72
2022-08-23T05:20:13.239Z,99911.00
2022-08-23T05:22:41.967Z,99906.59
2022-08-23T05:25:53.200Z,99910.53
2022-08-23T05:28:30.555Z,99900.78
2022-08-23T05:31:04.975Z,99910.16
2022-08-23T05:33:40.512Z,99906.94
2022-08-23T05:36:08.353Z,99911.91
2022-08-23T05:38:36.002Z,99919.31
2022-08-23T05:41:07.934Z,99917.19
2022-08-23T05:44:53.139Z,99915.38
2022-08-23T05:47:28.080Z,99922.78
2022-08-23T05:50:48.346Z,99925.63
2022-08-23T05:53:15.649Z,99926.06
2022-08-23T05:56:16.906Z,99933.88
2022-08-23T05:58:44.514Z,99932.78
2022-08-23T06:01:36.151Z,99928.38
2022-08-23T06:04:14.757Z,99938.31
2022-08-23T06:08:04.158Z,99933.69
2022-08-23T06:10:32.331Z,99934.75
2022-08-23T06:13:06.942Z,99930.78
2022-08-23T06:15:33.976Z,99933.72
2022-08-23T06:18:05.516Z,99932.88
2022-08-23T06:20:33.129Z,99939.03
2022-08-23T06:23:05.281Z,99937.16
2022-08-23T06:25:32.197Z,99934.06
2022-08-23T06:28:32.076Z,99941.84
2022-08-23T06:31:00.357Z,99942.06
2022-08-23T06:33:33.343Z,99944.13
2022-08-23T06:36:25.250Z,99942.56
2022-08-23T06:39:12.902Z,99947.31
2022-08-23T06:42:55.278Z,99942.88
2022-08-23T06:45:34.976Z,99942.19
2022-08-23T06:48:03.328Z,99936.03
2022-08-23T06:55:22.265Z,99940.00
2022-08-23T07:02:54.172Z,99942.81
2022-08-23T07:05:44.302Z,99942.22
2022-08-23T07:13:45.977Z,99939.25
2022-08-23T07:16:12.877Z,99949.09
2022-08-23T07:18:39.699Z,99954.50
2022-08-23T07:21:06.682Z,99945.59
2022-08-23T07:23:35.116Z,99956.03
2022-08-23T07:26:08.271Z,99948.16
2022-08-23T07:28:35.133Z,99951.31
2022-08-23T07:31:11.364Z,99962.56
2022-08-23T07:33:44.551Z,99954.47
2022-08-23T07:36:18.402Z,99958.66
2022-08-23T07:42:58.346Z,99960.31
2022-08-23T07:45:26.418Z,99959.69
2022-08-23T07:47:57.247Z,99964.28
2022-08-23T07:51:42.676Z,99963.22
2022-08-23T07:54:10.470Z,99966.56
2022-08-23T07:57:11.054Z,99962.00
2022-08-23T07:59:52.435Z,99958.50
2022-08-23T08:02:39.430Z,99966.19
2022-08-23T08:05:13.487Z,99968.06
2022-08-23T08:07:41.423Z,99964.72
2022-08-23T08:10:08.242Z,99964.94
2022-08-23T08:12:35.493Z,99965.56
2022-08-23T08:24:06.345Z,99963.50
2022-08-23T08:26:42.244Z,99959.97
2022-08-23T08:29:11.931Z,99960.00
2022-08-23T08:31:43.047Z,99966.44
2022-08-23T08:34:10.760Z,99965.81
2022-08-23T08:36:39.079Z,99964.13
2022-08-23T08:39:12.868Z,99960.81
2022-08-23T08:42:04.861Z,99963.91
2022-08-23T08:44:54.153Z,99975.97
2022-08-23T08:47:42.191Z,99973.47
2022-08-23T08:50:20.280Z,99969.50
2022-08-23T08:52:59.654Z,99968.47
2022-08-23T08:55:55.259Z,99967.00
2022-08-23T08:58:52.733Z,99969.09
2022-08-23T09:06:18.128Z,99960.47
2022-08-23T09:17:52.089Z,99959.66
2022-08-23T09:21:12.353Z,99960.47
2022-08-23T09:24:06.892Z,99950.69
2022-08-23T09:26:48.228Z,99953.34
2022-08-23T09:29:32.719Z,99959.81
2022-08-23T09:37:17.799Z,99957.69
2022-08-23T09:39:49.596Z,99955.13
2022-08-23T09:42:31.506Z,99949.72
2022-08-23T09:50:58.060Z,99952.81
2022-08-23T09:53:27.983Z,99953.16
2022-08-23T09:55:57.938Z,99941.69
2022-08-23T09:58:37.164Z,99939.41
2022-08-23T10:01:59.322Z,99937.75
2022-08-23T10:04:29.555Z,99933.72
2022-08-23T10:07:00.703Z,99934.75
2022-08-23T10:09:31.442Z,99931.16
2022-08-23T10:12:00.046Z,99927.81
2022-08-23T10:14:32.949Z,99935.97
2022-08-23T10:22:05.198Z,99927.38
2022-08-23T10:29:40.855Z,99920.88
2022-08-23T10:32:31.702Z,99913.78
2022-08-23T10:39:29.983Z,99918.28
2022-08-23T10:42:06.425Z,99914.28
2022-08-23T10:44:52.309Z,99918.19
2022-08-23T10:56:50.900Z,99905.03
2022-08-23T10:59:24.070Z,99902.91
2022-08-23T11:02:26.252Z,99897.72
2022-08-23T11:05:18.459Z,99897.44
2022-08-23T11:07:57.099Z,99893.22
2022-08-23T11:10:32.146Z,99891.50
2022-08-23T11:22:58.119Z,99879.06
2022-08-23T11:25:25.477Z,99881.66
2022-08-23T11:28:21.904Z,99868.16
2022-08-23T11:31:41.107Z,99874.78
2022-08-23T11:34:27.321Z,99875.81
2022-08-23T11:37:18.911Z,99878.28
2022-08-23T11:40:00.262Z,99877.59
2022-08-23T11:47:39.828Z,99879.63
2022-08-23T12:00:13.815Z,99858.78
2022-08-23T12:07:51.092Z,99860.97
2022-08-23T12:10:40.630Z,99852.81
2022-08-23T12:13:22.433Z,99866.75
2022-08-23T12:16:49.675Z,99858.00
2022-08-23T12:19:29.746Z,99856.22
2022-08-23T12:22:23.180Z,99855.06
2022-08-23T12:25:11.743Z,99860.84
2022-08-23T12:27:46.891Z,99846.75
2022-08-23T12:30:26.287Z,99853.25
2022-08-23T12:33:10.821Z,99848.97
2022-08-23T12:36:05.141Z,99844.38
2022-08-23T12:43:26.008Z,99840.78
2022-08-23T12:45:56.771Z,99843.25
2022-08-23T12:48:27.320Z,99849.28
2022-08-23T12:50:57.107Z,99834.63
2022-08-23T12:53:36.205Z,99839.50
2022-08-23T12:56:06.304Z,99835.97
2022-08-23T12:58:35.650Z,99836.91
2022-08-23T13:01:18.302Z,99833.13
2022-08-23T13:03:49.767Z,99826.66
2022-08-23T13:06:22.487Z,99826.28
2022-08-23T13:08:54.902Z,99835.50
2022-08-23T13:11:23.130Z,99826.91
2022-08-23T13:13:52.152Z,99825.47
2022-08-23T13:16:32.207Z,99824.50
2022-08-23T13:19:22.406Z,99817.19
2022-08-23T13:22:12.193Z,99814.81
2022-08-23T13:24:43.915Z,99813.66
2022-08-23T13:27:20.031Z,99811.50
2022-08-23T13:29:58.844Z,99815.41
2022-08-23T13:32:41.966Z,99817.81
2022-08-23T13:35:37.161Z,99819.00
2022-08-23T13:38:06.975Z,99811.50
2022-08-23T13:40:40.692Z,99805.34
2022-08-23T13:43:12.649Z,99809.88
2022-08-23T13:45:51.566Z,99816.72
2022-08-23T13:48:34.240Z,99797.91
2022-08-23T13:51:17.533Z,99811.28
2022-08-23T13:53:44.210Z,99814.47
2022-08-23T13:56:11.226Z,99805.25
2022-08-23T13:58:37.979Z,99803.94
2022-08-23T14:01:05.515Z,99813.50
2022-08-23T14:03:32.865Z,99811.34
2022-08-23T14:05:59.614Z,99803.44
2022-08-23T14:08:26.321Z,99804.03
2022-08-23T14:10:53.059Z,99802.16
2022-08-23T14:13:21.073Z,99795.63
2022-08-23T14:15:56.646Z,99798.94
2022-08-23T14:18:30.411Z,99806.28
2022-08-23T14:20:57.146Z,99794.41
2022-08-23T14:23:23.838Z,99791.19
2022-08-23T14:25:52.217Z,99794.78
2022-08-23T14:28:19.060Z,99792.06
2022-08-23T14:30:46.035Z,99791.78
2022-08-23T14:33:12.755Z,99792.38
2022-08-23T14:35:39.421Z,99792.97
2022-08-23T14:38:06.094Z,99788.38
2022-08-23T14:40:33.304Z,99788.72
2022-08-23T14:43:00.408Z,99786.84
2022-08-23T14:45:27.317Z,99786.34
2022-08-23T14:47:54.029Z,99784.78
2022-08-23T14:50:20.749Z,99782.66
2022-08-23T14:52:48.101Z,99787.03
2022-08-23T14:55:15.288Z,99782.75
2022-08-23T14:57:42.133Z,99782.25
2022-08-23T15:00:13.949Z,99786.16
2022-08-23T15:02:47.370Z,99780.13
2022-08-23T15:05:14.917Z,99780.81
2022-08-23T15:07:42.114Z,99780.56
2022-08-23T15:10:10.594Z,99783.03
2022-08-23T15:15:25.317Z,99772.50
2022-08-23T15:17:54.513Z,99770.09
2022-08-23T15:20:34.080Z,99777.94
2022-08-23T15:23:00.897Z,99774.00
2022-08-23T15:25:31.814Z,99769.28
2022-08-23T15:27:58.611Z,99768.44
2022-08-23T15:30:25.462Z,99772.81
2022-08-23T15:32:56.574Z,99768.19
2022-08-23T15:35:25.386Z,99758.97
2022-08-23T15:37:54.385Z,99768.19
2022-08-23T15:40:21.260Z,99771.19
2022-08-23T15:42:48.022Z,99768.44
2022-08-23T15:45:15.123Z,99759.44
2022-08-23T15:47:47.355Z,99765.03
2022-08-23T15:50:14.031Z,99768.81
2022-08-23T15:52:40.842Z,99765.28
2022-08-23T15:55:08.098Z,99772.63
2022-08-23T15:57:42.627Z,99768.25
2022-08-23T16:00:11.447Z,99761.50
2022-08-23T16:03:06.362Z,99765.03
2022-08-23T16:05:28.379Z,99761.50
2022-08-23T16:07:56.320Z,99765.03
2022-08-23T16:10:25.146Z,99763.13
2022-08-23T16:12:55.208Z,99762.31
2022-08-23T16:15:22.224Z,99761.50
2022-08-23T16:17:48.897Z,99759.00
2022-08-23T16:20:15.698Z,99757.69
2022-08-23T16:22:42.675Z,99763.13
2022-08-23T16:25:10.514Z,99772.13
2022-08-23T16:27:37.629Z,99762.06
2022-08-23T16:30:05.750Z,99762.06
2022-08-23T16:32:32.438Z,99761.25
2022-08-23T16:34:59.113Z,99753.31
2022-08-23T16:37:25.769Z,99754.97
2022-08-23T16:39:52.745Z,99765.03
2022-08-23T16:42:20.713Z,99759.59
2022-08-23T16:44:47.462Z,99756.59
2022-08-23T16:47:15.447Z,99762.06
2022-08-23T16:49:43.147Z,99766.47
2022-08-23T16:52:12.875Z,99767.50
2022-08-23T16:54:39.675Z,99769.41
2022-08-23T16:57:06.792Z,99771.09
2022-08-23T16:59:38.419Z,99768.34
2022-08-23T17:02:11.213Z,99771.91
2022-08-23T17:04:38.160Z,99776.53
2022-08-23T17:07:04.994Z,99777.34
2022-08-23T17:09:31.840Z,99776.53
2022-08-23T17:11:58.924Z,99772.94
2022-08-23T17:14:26.150Z,99776.53
2022-08-23T17:16:53.317Z,99771.31
2022-08-23T17:19:20.150Z,99778.91
2022-08-23T17:21:46.910Z,99779.16
2022-08-23T17:24:13.619Z,99780.47
2022-08-23T17:26:40.334Z,99785.34
2022-08-23T17:29:09.215Z,99784.75
2022-08-23T17:31:36.681Z,99789.59
2022-08-23T17:34:03.880Z,99784.66
2022-08-23T17:36:38.805Z,99789.50
2022-08-23T17:39:10.634Z,99801.97
2022-08-23T17:41:38.568Z,99805.75
2022-08-23T17:44:07.124Z,99792.38
2022-08-23T17:46:38.123Z,99801.03
2022-08-23T17:49:05.766Z,99799.38
2022-08-23T17:51:32.989Z,99802.09
2022-08-23T17:53:59.661Z,99805.06
2022-08-23T17:56:27.024Z,99813.22
2022-08-23T17:58:53.849Z,99809.94
2022-08-23T18:01:22.030Z,99813.47
2022-08-23T18:03:49.656Z,99813.72
2022-08-23T18:06:17.551Z,99822.69
2022-08-23T18:08:45.280Z,99829.00
2022-08-23T18:11:12.383Z,99827.31
2022-08-23T18:13:39.265Z,99830.28
2022-08-23T18:16:06.627Z,99824.25
2022-08-23T18:18:33.449Z,99827.44
2022-08-23T18:21:05.611Z,99829.00
2022-08-23T18:23:32.367Z,99830.88
2022-08-23T18:26:08.557Z,99837.53
2022-08-23T18:28:35.306Z,99835.16
2022-08-23T18:31:03.615Z,99844.03
2022-08-23T18:33:36.834Z,99851.63
2022-08-23T18:36:14.826Z,99852.09
2022-08-23T18:38:41.485Z,99859.91
2022-08-23T18:41:08.189Z,99868.88
2022-08-23T18:43:34.831Z,99870.44
2022-08-23T18:46:05.088Z,99867.94
2022-08-23T18:48:32.221Z,99878.84
2022-08-23T18:51:00.099Z,99878.38
2022-08-23T18:53:27.014Z,99878.38
2022-08-23T18:55:54.090Z,99877.56
2022-08-23T18:58:21.442Z,99884.50
2022-08-23T19:00:50.676Z,99899.06
2022-08-23T19:03:17.747Z,99899.34
2022-08-23T19:05:44.565Z,99898.91
2022-08-23T19:08:12.507Z,99900.19
2022-08-23T19:10:40.885Z,99904.31
2022-08-23T19:13:08.916Z,99912.56
2022-08-23T19:15:37.512Z,99914.94
2022-08-23T19:18:05.474Z,99915.75
2022-08-23T19:20:33.257Z,99922.75
2022-08-23T19:23:00.271Z,99922.63
2022-08-23T19:25:27.734Z,99930.25
2022-08-23T19:28:00.353Z,99925.50
2022-08-23T19:30:28.317Z,99934.13
2022-08-23T19:32:56.449Z,99934.06
2022-08-23T19:35:23.228Z,99936.56
2022-08-23T19:37:49.965Z,99935.59
2022-08-23T19:40:16.763Z,99937.72
2022-08-23T19:42:43.729Z,99932.09
2022-08-23T19:45:11.112Z,99937.31
2022-08-23T19:47:37.935Z,99946.81
2022-08-23T19:50:04.966Z,99950.16
2022-08-23T19:52:33.210Z,99946.00
2022-08-23T19:55:05.676Z,99944.94
2022-08-23T19:57:35.089Z,99949.53
2022-08-23T20:00:07.294Z,99955.44
2022-08-23T20:02:34.067Z,99953.91
2022-08-23T20:05:01.817Z,99959.59
2022-08-23T20:07:28.738Z,99950.16
2022-08-23T20:09:57.274Z,99956.41
2022-08-23T20:12:25.877Z,99968.09
2022-08-23T20:14:53.825Z,99969.22
2022-08-23T20:17:23.081Z,99975.94
2022-08-23T20:19:51.965Z,99973.41
2022-08-23T20:22:37.498Z,99975.91
2022-08-23T20:25:08.766Z,99976.63
2022-08-23T20:27:38.555Z,99981.53
2022-08-23T20:30:06.852Z,99983.19
2022-08-23T20:32:33.926Z,99978.66
2022-08-23T20:35:01.676Z,99982.66
2022-08-23T20:37:29.654Z,99979.53
2022-08-23T20:39:56.456Z,99985.44
2022-08-23T20:42:23.498Z,99986.69
2022-08-23T20:44:50.190Z,99980.91
2022-08-23T20:47:16.880Z,99981.75
2022-08-23T20:49:43.646Z,99976.97
2022-08-23T20:52:11.822Z,99978.66
2022-08-23T20:54:38.991Z,99992.44
2022-08-23T20:57:05.649Z,99984.94
2022-08-23T20:59:32.450Z,99991.91
2022-08-23T21:01:59.522Z,99988.56
2022-08-23T21:04:29.890Z,99990.47
2022-08-23T21:06:57.662Z,99991.28
2022-08-23T21:09:29.120Z,99999.25
2022-08-23T21:11:56.532Z,100000.34
2022-08-23T21:14:23.286Z,100003.50
2022-08-23T21:16:49.996Z,100001.19
2022-08-23T21:19:17.126Z,100004.53
2022-08-23T21:21:43.828Z,100002.28
2022-08-23T21:24:11.545Z,100005.00
2022-08-23T21:26:38.674Z,100001.66
2022-08-23T21:29:11.049Z,100001.41
2022-08-23T21:31:38.301Z,100000.16
2022-08-23T21:34:05.089Z,100003.13
2022-08-23T21:36:31.775Z,99993.09
2022-08-23T21:38:58.522Z,99998.09
2022-08-23T21:41:36.502Z,99998.75
2022-08-23T21:44:05.928Z,100004.19
2022-08-23T21:46:33.264Z,100003.13
2022-08-23T21:49:00.404Z,100001.50
2022-08-23T21:51:27.119Z,100005.28
2022-08-23T21:53:53.795Z,100005.72
2022-08-23T21:56:20.630Z,100006.09
2022-08-23T21:58:50.679Z,100004.28
2022-08-23T22:01:18.613Z,100002.56
2022-08-23T22:03:45.367Z,100003.22
2022-08-23T22:06:13.757Z,100013.22
2022-08-23T22:08:42.966Z,100010.13
2022-08-23T22:11:11.165Z,100005.44
2022-08-23T22:13:38.319Z,100005.00
2022-08-23T22:16:06.961Z,100011.66
2022-08-23T22:18:34.158Z,100009.41
2022-08-23T22:21:01.351Z,100010.06
2022-08-23T22:23:29.325Z,100003.88
2022-08-23T22:25:57.661Z,100011.50
2022-08-23T22:28:24.461Z,100004.63
2022-08-23T22:30:52.828Z,100000.66
2022-08-23T22:33:20.925Z,100008.97
2022-08-23T22:35:49.019Z,100008.22
2022-08-23T22:38:17.395Z,100006.19
2022-08-23T22:40:51.683Z,100009.78
2022-08-23T22:43:19.270Z,100006.41
2022-08-23T22:46:04.872Z,100006.94
2022-08-23T22:48:34.682Z,100006.00
2022-08-23T22:51:06.180Z,100018.13
2022-08-23T22:53:36.434Z,100012.28
2022-08-23T22:56:04.836Z,100022.50
2022-08-23T22:58:32.082Z,100026.25
2022-08-23T23:00:58.959Z,100027.09
2022-08-23T23:03:25.696Z,100031.91
2022-08-23T23:05:52.386Z,100034.22
2022-08-23T23:08:28.254Z,100020.47
2022-08-23T23:11:02.190Z,100019.22
2022-08-23T23:13:31.392Z,100018.81
2022-08-23T23:15:59.931Z,100019.47
2022-08-23T23:18:26.665Z,100022.59
2022-08-23T23:20:57.977Z,100030.06
2022-08-23T23:23:24.791Z,100021.09
2022-08-23T23:25:51.529Z,100022.16
2022-08-23T23:28:18.832Z,100022.38
2022-08-23T23:30:47.624Z,100024.84
2022-08-23T23:33:14.798Z,100021.94
2022-08-23T23:35:42.029Z,100015.91
2022-08-23T23:38:10.178Z,100021.53
2022-08-23T23:40:37.590Z,100020.91
2022-08-23T23:43:04.351Z,100027.59
2022-08-23T23:45:31.160Z,100022.41
2022-08-23T23:47:59.154Z,100023.84
2022-08-23T23:50:26.957Z,100013.03
2022-08-23T23:52:54.095Z,100006.97
2022-08-23T23:55:21.837Z,100014.28
2022-08-23T23:57:48.622Z,100032.19
